sensor_id;sensor_type;location;lat;lon;timestamp;P1;durP1;ratioP1;P2;durP2;ratioP2
22455;SDS011;11395;53.204;6.502;2022-09-02T00:05:54;3.03;;;2.70;;
22455;SDS011;11395;53.204;6.502;2022-09-02T00:08:52;3.70;;;2.63;;
22455;SDS011;11395;53.204;6.502;2022-09-02T00:15:12;5.50;;;3.10;;
22455;SDS011;11395;53.204;6.502;2022-09-02T00:18:19;3.27;;;2.60;;
22455;SDS011;11395;53.204;6.502;2022-09-02T00:21:02;3.17;;;2.60;;
22455;SDS011;11395;53.204;6.502;2022-09-02T00:23:32;2.90;;;2.57;;
22455;SDS011;11395;53.204;6.502;2022-09-02T00:26:26;3.17;;;2.67;;
22455;SDS011;11395;53.204;6.502;2022-09-02T00:29:17;3.23;;;2.47;;
22455;SDS011;11395;53.204;6.502;2022-09-02T00:32:06;3.53;;;2.27;;
22455;SDS011;11395;53.204;6.502;2022-09-02T00:34:48;3.90;;;2.60;;
22455;SDS011;11395;53.204;6.502;2022-09-02T00:37:30;2.57;;;2.33;;
22455;SDS011;11395;53.204;6.502;2022-09-02T00:40:29;3.10;;;2.33;;
22455;SDS011;11395;53.204;6.502;2022-09-02T00:43:09;3.03;;;2.40;;
22455;SDS011;11395;53.204;6.502;2022-09-02T00:52:18;2.30;;;1.97;;
22455;SDS011;11395;53.204;6.502;2022-09-02T00:55:05;2.70;;;2.37;;
22455;SDS011;11395;53.204;6.502;2022-09-02T00:57:40;2.60;;;2.37;;
22455;SDS011;11395;53.204;6.502;2022-09-02T01:20:07;2.97;;;2.60;;
22455;SDS011;11395;53.204;6.502;2022-09-02T01:22:43;3.00;;;2.20;;
22455;SDS011;11395;53.204;6.502;2022-09-02T01:25:49;3.23;;;2.20;;
22455;SDS011;11395;53.204;6.502;2022-09-02T01:28:47;3.40;;;2.20;;
22455;SDS011;11395;53.204;6.502;2022-09-02T01:31:24;2.40;;;2.20;;
22455;SDS011;11395;53.204;6.502;2022-09-02T01:34:10;2.33;;;2.13;;
22455;SDS011;11395;53.204;6.502;2022-09-02T01:40:30;2.40;;;2.00;;
22455;SDS011;11395;53.204;6.502;2022-09-02T01:43:13;2.40;;;2.20;;
22455;SDS011;11395;53.204;6.502;2022-09-02T01:46:20;2.57;;;2.30;;
22455;SDS011;11395;53.204;6.502;2022-09-02T01:48:58;2.67;;;2.13;;
22455;SDS011;11395;53.204;6.502;2022-09-02T01:51:26;2.27;;;2.03;;
22455;SDS011;11395;53.204;6.502;2022-09-02T01:53:54;2.53;;;2.30;;
22455;SDS011;11395;53.204;6.502;2022-09-02T01:56:20;2.23;;;1.80;;
22455;SDS011;11395;53.204;6.502;2022-09-02T01:58:48;2.60;;;2.40;;
22455;SDS011;11395;53.204;6.502;2022-09-02T02:01:14;2.77;;;2.20;;
22455;SDS011;11395;53.204;6.502;2022-09-02T02:03:41;2.40;;;2.20;;
22455;SDS011;11395;53.204;6.502;2022-09-02T02:06:11;2.23;;;2.03;;
22455;SDS011;11395;53.204;6.502;2022-09-02T02:08:42;3.13;;;2.10;;
22455;SDS011;11395;53.204;6.502;2022-09-02T02:11:09;2.40;;;2.20;;
22455;SDS011;11395;53.204;6.502;2022-09-02T02:13:36;2.30;;;2.00;;
22455;SDS011;11395;53.204;6.502;2022-09-02T02:16:02;2.23;;;2.13;;
22455;SDS011;11395;53.204;6.502;2022-09-02T02:18:29;2.40;;;2.20;;
22455;SDS011;11395;53.204;6.502;2022-09-02T02:20:55;1.80;;;1.63;;
22455;SDS011;11395;53.204;6.502;2022-09-02T02:23:21;2.07;;;1.90;;
22455;SDS011;11395;53.204;6.502;2022-09-02T02:25:48;4.17;;;2.30;;
22455;SDS011;11395;53.204;6.502;2022-09-02T02:28:16;3.53;;;2.30;;
22455;SDS011;11395;53.204;6.502;2022-09-02T02:30:43;2.03;;;1.70;;
22455;SDS011;11395;53.204;6.502;2022-09-02T02:33:10;2.57;;;2.07;;
22455;SDS011;11395;53.204;6.502;2022-09-02T02:35:36;2.70;;;2.20;;
22455;SDS011;11395;53.204;6.502;2022-09-02T02:38:03;1.93;;;1.83;;
22455;SDS011;11395;53.204;6.502;2022-09-02T02:40:29;2.30;;;2.10;;
22455;SDS011;11395;53.204;6.502;2022-09-02T02:42:56;2.87;;;1.90;;
22455;SDS011;11395;53.204;6.502;2022-09-02T02:45:23;2.20;;;2.00;;
22455;SDS011;11395;53.204;6.502;2022-09-02T02:47:50;1.70;;;1.60;;
22455;SDS011;11395;53.204;6.502;2022-09-02T02:50:19;3.07;;;2.00;;
22455;SDS011;11395;53.204;6.502;2022-09-02T02:52:47;2.47;;;1.70;;
22455;SDS011;11395;53.204;6.502;2022-09-02T02:55:16;2.30;;;2.10;;
22455;SDS011;11395;53.204;6.502;2022-09-02T02:57:42;2.60;;;2.23;;
22455;SDS011;11395;53.204;6.502;2022-09-02T03:02:48;2.60;;;1.70;;
22455;SDS011;11395;53.204;6.502;2022-09-02T03:05:18;2.33;;;2.13;;
22455;SDS011;11395;53.204;6.502;2022-09-02T03:07:46;2.57;;;2.00;;
22455;SDS011;11395;53.204;6.502;2022-09-02T03:10:13;1.80;;;1.70;;
22455;SDS011;11395;53.204;6.502;2022-09-02T03:12:41;1.70;;;1.60;;
22455;SDS011;11395;53.204;6.502;2022-09-02T03:15:13;1.70;;;1.60;;
22455;SDS011;11395;53.204;6.502;2022-09-02T03:17:43;1.93;;;1.80;;
22455;SDS011;11395;53.204;6.502;2022-09-02T03:20:10;3.63;;;2.10;;
22455;SDS011;11395;53.204;6.502;2022-09-02T03:22:41;2.20;;;1.90;;
22455;SDS011;11395;53.204;6.502;2022-09-02T03:25:09;3.00;;;2.00;;
22455;SDS011;11395;53.204;6.502;2022-09-02T03:27:37;1.80;;;1.70;;
22455;SDS011;11395;53.204;6.502;2022-09-02T03:30:08;1.70;;;1.60;;
22455;SDS011;11395;53.204;6.502;2022-09-02T03:32:36;2.00;;;1.90;;
22455;SDS011;11395;53.204;6.502;2022-09-02T03:35:03;2.03;;;1.83;;
22455;SDS011;11395;53.204;6.502;2022-09-02T03:37:33;2.20;;;2.00;;
22455;SDS011;11395;53.204;6.502;2022-09-02T03:40:02;2.30;;;2.00;;
22455;SDS011;11395;53.204;6.502;2022-09-02T03:42:31;1.90;;;1.80;;
22455;SDS011;11395;53.204;6.502;2022-09-02T03:44:57;1.90;;;1.80;;
22455;SDS011;11395;53.204;6.502;2022-09-02T03:47:24;2.10;;;1.73;;
22455;SDS011;11395;53.204;6.502;2022-09-02T03:49:56;1.60;;;1.50;;
22455;SDS011;11395;53.204;6.502;2022-09-02T03:52:22;1.80;;;1.70;;
22455;SDS011;11395;53.204;6.502;2022-09-02T03:54:49;1.90;;;1.70;;
22455;SDS011;11395;53.204;6.502;2022-09-02T03:57:16;1.90;;;1.80;;
22455;SDS011;11395;53.204;6.502;2022-09-02T03:59:42;2.10;;;1.90;;
22455;SDS011;11395;53.204;6.502;2022-09-02T04:02:08;2.13;;;1.80;;
22455;SDS011;11395;53.204;6.502;2022-09-02T04:04:34;1.80;;;1.70;;
22455;SDS011;11395;53.204;6.502;2022-09-02T04:07:01;2.17;;;1.90;;
22455;SDS011;11395;53.204;6.502;2022-09-02T04:09:27;1.90;;;1.80;;
22455;SDS011;11395;53.204;6.502;2022-09-02T04:11:54;1.80;;;1.70;;
22455;SDS011;11395;53.204;6.502;2022-09-02T04:14:20;2.13;;;1.93;;
22455;SDS011;11395;53.204;6.502;2022-09-02T04:16:46;1.60;;;1.50;;
22455;SDS011;11395;53.204;6.502;2022-09-02T04:19:13;2.03;;;1.67;;
22455;SDS011;11395;53.204;6.502;2022-09-02T04:21:40;1.90;;;1.80;;
22455;SDS011;11395;53.204;6.502;2022-09-02T04:24:07;2.07;;;1.80;;
22455;SDS011;11395;53.204;6.502;2022-09-02T04:26:36;1.70;;;1.60;;
22455;SDS011;11395;53.204;6.502;2022-09-02T04:29:04;2.63;;;1.87;;
22455;SDS011;11395;53.204;6.502;2022-09-02T04:31:33;2.03;;;1.90;;
22455;SDS011;11395;53.204;6.502;2022-09-02T04:34:01;1.80;;;1.70;;
22455;SDS011;11395;53.204;6.502;2022-09-02T04:36:28;1.80;;;1.70;;
22455;SDS011;11395;53.204;6.502;2022-09-02T04:38:56;1.90;;;1.73;;
22455;SDS011;11395;53.204;6.502;2022-09-02T04:41:28;1.83;;;1.73;;
22455;SDS011;11395;53.204;6.502;2022-09-02T04:43:58;1.60;;;1.50;;
22455;SDS011;11395;53.204;6.502;2022-09-02T04:46:28;1.67;;;1.57;;
22455;SDS011;11395;53.204;6.502;2022-09-02T04:48:55;2.17;;;1.70;;
22455;SDS011;11395;53.204;6.502;2022-09-02T04:51:23;1.80;;;1.57;;
22455;SDS011;11395;53.204;6.502;2022-09-02T04:53:53;1.63;;;1.50;;
22455;SDS011;11395;53.204;6.502;2022-09-02T04:56:21;1.83;;;1.63;;
22455;SDS011;11395;53.204;6.502;2022-09-02T04:58:49;1.50;;;1.40;;
22455;SDS011;11395;53.204;6.502;2022-09-02T05:01:21;1.50;;;1.40;;
22455;SDS011;11395;53.204;6.502;2022-09-02T05:03:52;1.70;;;1.47;;
22455;SDS011;11395;53.204;6.502;2022-09-02T05:06:22;1.80;;;1.70;;
22455;SDS011;11395;53.204;6.502;2022-09-02T05:08:52;1.60;;;1.50;;
22455;SDS011;11395;53.204;6.502;2022-09-02T05:11:24;2.07;;;1.87;;
22455;SDS011;11395;53.204;6.502;2022-09-02T05:13:55;1.50;;;1.40;;
22455;SDS011;11395;53.204;6.502;2022-09-02T05:16:24;1.60;;;1.50;;
22455;SDS011;11395;53.204;6.502;2022-09-02T05:19:00;1.90;;;1.80;;
22455;SDS011;11395;53.204;6.502;2022-09-02T05:21:39;1.50;;;1.40;;
22455;SDS011;11395;53.204;6.502;2022-09-02T05:24:09;1.63;;;1.53;;
22455;SDS011;11395;53.204;6.502;2022-09-02T05:26:37;1.87;;;1.63;;
22455;SDS011;11395;53.204;6.502;2022-09-02T05:29:04;1.40;;;1.30;;
22455;SDS011;11395;53.204;6.502;2022-09-02T05:31:38;1.83;;;1.30;;
22455;SDS011;11395;53.204;6.502;2022-09-02T05:34:07;1.43;;;1.33;;
22455;SDS011;11395;53.204;6.502;2022-09-02T05:36:34;1.80;;;1.70;;
22455;SDS011;11395;53.204;6.502;2022-09-02T05:39:00;1.47;;;1.37;;
22455;SDS011;11395;53.204;6.502;2022-09-02T05:41:27;1.57;;;1.50;;
22455;SDS011;11395;53.204;6.502;2022-09-02T05:43:59;1.50;;;1.40;;
22455;SDS011;11395;53.204;6.502;2022-09-02T05:46:27;1.30;;;1.23;;
22455;SDS011;11395;53.204;6.502;2022-09-02T05:48:55;1.67;;;1.57;;
22455;SDS011;11395;53.204;6.502;2022-09-02T05:51:41;2.57;;;1.27;;
22455;SDS011;11395;53.204;6.502;2022-09-02T05:54:10;1.80;;;1.53;;
22455;SDS011;11395;53.204;6.502;2022-09-02T05:56:42;1.67;;;1.57;;
22455;SDS011;11395;53.204;6.502;2022-09-02T05:59:09;1.40;;;1.30;;
22455;SDS011;11395;53.204;6.502;2022-09-02T06:01:35;1.67;;;1.40;;
22455;SDS011;11395;53.204;6.502;2022-09-02T06:04:05;2.53;;;1.67;;
22455;SDS011;11395;53.204;6.502;2022-09-02T06:06:33;3.00;;;1.90;;
22455;SDS011;11395;53.204;6.502;2022-09-02T06:09:00;1.40;;;1.30;;
22455;SDS011;11395;53.204;6.502;2022-09-02T06:11:29;1.73;;;1.63;;
22455;SDS011;11395;53.204;6.502;2022-09-02T06:13:55;1.50;;;1.40;;
22455;SDS011;11395;53.204;6.502;2022-09-02T06:16:22;1.43;;;1.33;;
22455;SDS011;11395;53.204;6.502;2022-09-02T06:18:49;1.30;;;1.10;;
22455;SDS011;11395;53.204;6.502;2022-09-02T06:21:16;2.37;;;1.40;;
22455;SDS011;11395;53.204;6.502;2022-09-02T06:23:46;2.17;;;1.50;;
22455;SDS011;11395;53.204;6.502;2022-09-02T06:26:14;2.83;;;1.40;;
22455;SDS011;11395;53.204;6.502;2022-09-02T06:28:43;6.57;;;1.90;;
22455;SDS011;11395;53.204;6.502;2022-09-02T06:31:11;1.97;;;1.10;;
22455;SDS011;11395;53.204;6.502;2022-09-02T06:33:41;2.17;;;1.17;;
22455;SDS011;11395;53.204;6.502;2022-09-02T06:36:09;6.50;;;1.37;;
22455;SDS011;11395;53.204;6.502;2022-09-02T06:38:40;1.80;;;1.40;;
22455;SDS011;11395;53.204;6.502;2022-09-02T06:41:10;3.03;;;1.30;;
22455;SDS011;11395;53.204;6.502;2022-09-02T06:43:41;2.20;;;1.57;;
22455;SDS011;11395;53.204;6.502;2022-09-02T06:46:18;2.57;;;1.50;;
22455;SDS011;11395;53.204;6.502;2022-09-02T06:48:49;1.40;;;1.30;;
22455;SDS011;11395;53.204;6.502;2022-09-02T06:51:18;2.33;;;1.60;;
22455;SDS011;11395;53.204;6.502;2022-09-02T06:53:47;1.60;;;1.50;;
22455;SDS011;11395;53.204;6.502;2022-09-02T06:56:15;2.13;;;1.77;;
22455;SDS011;11395;53.204;6.502;2022-09-02T06:58:42;5.20;;;2.13;;
22455;SDS011;11395;53.204;6.502;2022-09-02T07:01:08;3.03;;;1.90;;
22455;SDS011;11395;53.204;6.502;2022-09-02T07:03:41;1.70;;;1.60;;
22455;SDS011;11395;53.204;6.502;2022-09-02T07:06:27;3.57;;;1.60;;
22455;SDS011;11395;53.204;6.502;2022-09-02T07:08:54;2.20;;;1.47;;
22455;SDS011;11395;53.204;6.502;2022-09-02T07:11:22;2.23;;;1.70;;
22455;SDS011;11395;53.204;6.502;2022-09-02T07:13:52;1.50;;;1.40;;
22455;SDS011;11395;53.204;6.502;2022-09-02T07:16:18;1.47;;;1.37;;
22455;SDS011;11395;53.204;6.502;2022-09-02T07:18:45;2.27;;;1.40;;
22455;SDS011;11395;53.204;6.502;2022-09-02T07:21:13;1.90;;;1.40;;
22455;SDS011;11395;53.204;6.502;2022-09-02T07:23:40;1.40;;;1.30;;
22455;SDS011;11395;53.204;6.502;2022-09-02T07:26:12;3.10;;;1.70;;
22455;SDS011;11395;53.204;6.502;2022-09-02T07:28:41;1.20;;;1.20;;
22455;SDS011;11395;53.204;6.502;2022-09-02T07:31:08;1.53;;;1.20;;
22455;SDS011;11395;53.204;6.502;2022-09-02T07:33:36;1.27;;;1.27;;
22455;SDS011;11395;53.204;6.502;2022-09-02T07:36:04;1.57;;;1.47;;
22455;SDS011;11395;53.204;6.502;2022-09-02T07:38:32;1.70;;;1.60;;
22455;SDS011;11395;53.204;6.502;2022-09-02T07:41:00;1.97;;;1.73;;
22455;SDS011;11395;53.204;6.502;2022-09-02T07:43:29;1.60;;;1.43;;
22455;SDS011;11395;53.204;6.502;2022-09-02T07:45:56;1.50;;;1.40;;
22455;SDS011;11395;53.204;6.502;2022-09-02T07:48:26;3.00;;;1.60;;
22455;SDS011;11395;53.204;6.502;2022-09-02T07:50:54;2.57;;;1.50;;
22455;SDS011;11395;53.204;6.502;2022-09-02T07:53:23;2.10;;;1.30;;
22455;SDS011;11395;53.204;6.502;2022-09-02T07:55:51;3.20;;;1.90;;
22455;SDS011;11395;53.204;6.502;2022-09-02T07:58:18;2.27;;;1.63;;
22455;SDS011;11395;53.204;6.502;2022-09-02T08:00:48;2.57;;;1.43;;
22455;SDS011;11395;53.204;6.502;2022-09-02T08:03:16;2.40;;;1.53;;
22455;SDS011;11395;53.204;6.502;2022-09-02T08:05:48;2.40;;;1.73;;
22455;SDS011;11395;53.204;6.502;2022-09-02T08:08:15;2.07;;;1.53;;
22455;SDS011;11395;53.204;6.502;2022-09-02T08:10:45;1.80;;;1.70;;
22455;SDS011;11395;53.204;6.502;2022-09-02T08:13:13;2.47;;;1.37;;
22455;SDS011;11395;53.204;6.502;2022-09-02T08:15:40;4.40;;;1.57;;
22455;SDS011;11395;53.204;6.502;2022-09-02T08:18:06;1.77;;;1.43;;
22455;SDS011;11395;53.204;6.502;2022-09-02T08:20:33;2.47;;;1.63;;
22455;SDS011;11395;53.204;6.502;2022-09-02T08:22:59;2.20;;;1.60;;
22455;SDS011;11395;53.204;6.502;2022-09-02T08:25:29;1.67;;;1.50;;
22455;SDS011;11395;53.204;6.502;2022-09-02T08:27:56;2.10;;;1.70;;
22455;SDS011;11395;53.204;6.502;2022-09-02T08:30:22;2.37;;;1.50;;
22455;SDS011;11395;53.204;6.502;2022-09-02T08:32:48;1.63;;;1.50;;
22455;SDS011;11395;53.204;6.502;2022-09-02T08:35:15;1.93;;;1.67;;
22455;SDS011;11395;53.204;6.502;2022-09-02T08:37:41;2.50;;;1.50;;
22455;SDS011;11395;53.204;6.502;2022-09-02T08:40:09;1.80;;;1.63;;
22455;SDS011;11395;53.204;6.502;2022-09-02T08:42:41;3.30;;;1.30;;
22455;SDS011;11395;53.204;6.502;2022-09-02T08:45:11;1.97;;;1.30;;
22455;SDS011;11395;53.204;6.502;2022-09-02T08:47:48;1.80;;;1.70;;
22455;SDS011;11395;53.204;6.502;2022-09-02T08:50:23;2.43;;;1.60;;
22455;SDS011;11395;53.204;6.502;2022-09-02T08:53:00;2.17;;;1.53;;
22455;SDS011;11395;53.204;6.502;2022-09-02T08:55:55;1.63;;;1.53;;
22455;SDS011;11395;53.204;6.502;2022-09-02T08:58:28;2.10;;;1.33;;
22455;SDS011;11395;53.204;6.502;2022-09-02T09:01:13;1.70;;;1.60;;
22455;SDS011;11395;53.204;6.502;2022-09-02T09:04:03;1.40;;;1.30;;
22455;SDS011;11395;53.204;6.502;2022-09-02T09:09:05;2.40;;;1.50;;
22455;SDS011;11395;53.204;6.502;2022-09-02T09:11:45;1.93;;;1.50;;
22455;SDS011;11395;53.204;6.502;2022-09-02T09:20:05;2.23;;;1.50;;
22455;SDS011;11395;53.204;6.502;2022-09-02T09:22:36;1.70;;;1.43;;
22455;SDS011;11395;53.204;6.502;2022-09-02T09:25:08;2.10;;;1.60;;
22455;SDS011;11395;53.204;6.502;2022-09-02T09:27:38;2.57;;;1.37;;
22455;SDS011;11395;53.204;6.502;2022-09-02T09:30:05;1.73;;;1.43;;
22455;SDS011;11395;53.204;6.502;2022-09-02T09:32:35;1.63;;;1.33;;
22455;SDS011;11395;53.204;6.502;2022-09-02T09:37:47;3.10;;;1.67;;
22455;SDS011;11395;53.204;6.502;2022-09-02T09:42:45;3.23;;;1.60;;
22455;SDS011;11395;53.204;6.502;2022-09-02T09:45:46;2.80;;;1.50;;
22455;SDS011;11395;53.204;6.502;2022-09-02T09:48:09;1.60;;;1.50;;
22455;SDS011;11395;53.204;6.502;2022-09-02T09:50:42;2.00;;;1.50;;
22455;SDS011;11395;53.204;6.502;2022-09-02T09:56:36;1.73;;;1.40;;
22455;SDS011;11395;53.204;6.502;2022-09-02T09:58:46;1.93;;;1.60;;
22455;SDS011;11395;53.204;6.502;2022-09-02T10:01:15;1.93;;;1.40;;
22455;SDS011;11395;53.204;6.502;2022-09-02T10:03:51;2.03;;;1.73;;
22455;SDS011;11395;53.204;6.502;2022-09-02T10:06:43;3.83;;;1.60;;
22455;SDS011;11395;53.204;6.502;2022-09-02T10:11:39;2.80;;;1.53;;
22455;SDS011;11395;53.204;6.502;2022-09-02T10:14:52;1.70;;;1.50;;
22455;SDS011;11395;53.204;6.502;2022-09-02T10:20:38;2.33;;;1.30;;
22455;SDS011;11395;53.204;6.502;2022-09-02T10:23:44;1.50;;;1.40;;
22455;SDS011;11395;53.204;6.502;2022-09-02T10:26:22;1.67;;;1.57;;
22455;SDS011;11395;53.204;6.502;2022-09-02T10:29:01;4.03;;;1.60;;
22455;SDS011;11395;53.204;6.502;2022-09-02T10:34:33;2.90;;;1.60;;
22455;SDS011;11395;53.204;6.502;2022-09-02T10:37:20;1.97;;;1.50;;
22455;SDS011;11395;53.204;6.502;2022-09-02T10:42:47;2.77;;;1.40;;
22455;SDS011;11395;53.204;6.502;2022-09-02T10:45:46;1.93;;;1.40;;
22455;SDS011;11395;53.204;6.502;2022-09-02T10:51:11;2.43;;;1.50;;
22455;SDS011;11395;53.204;6.502;2022-09-02T10:56:25;1.30;;;1.20;;
22455;SDS011;11395;53.204;6.502;2022-09-02T10:59:06;1.60;;;1.50;;
22455;SDS011;11395;53.204;6.502;2022-09-02T11:01:40;2.57;;;1.53;;
22455;SDS011;11395;53.204;6.502;2022-09-02T11:06:46;3.90;;;1.40;;
22455;SDS011;11395;53.204;6.502;2022-09-02T11:19:54;2.60;;;1.50;;
22455;SDS011;11395;53.204;6.502;2022-09-02T11:30:48;1.70;;;1.60;;
22455;SDS011;11395;53.204;6.502;2022-09-02T11:33:31;1.10;;;1.10;;
22455;SDS011;11395;53.204;6.502;2022-09-02T11:36:09;2.23;;;1.60;;
22455;SDS011;11395;53.204;6.502;2022-09-02T11:38:38;1.60;;;1.50;;
22455;SDS011;11395;53.204;6.502;2022-09-02T11:41:27;1.43;;;1.30;;
22455;SDS011;11395;53.204;6.502;2022-09-02T11:55:47;1.73;;;1.37;;
22455;SDS011;11395;53.204;6.502;2022-09-02T12:03:54;1.30;;;1.20;;
22455;SDS011;11395;53.204;6.502;2022-09-02T12:06:31;1.43;;;1.33;;
22455;SDS011;11395;53.204;6.502;2022-09-02T12:09:02;1.60;;;1.33;;
22455;SDS011;11395;53.204;6.502;2022-09-02T12:14:08;1.63;;;1.30;;
22455;SDS011;11395;53.204;6.502;2022-09-02T12:17:07;1.10;;;1.10;;
22455;SDS011;11395;53.204;6.502;2022-09-02T12:24:49;1.13;;;1.13;;
22455;SDS011;11395;53.204;6.502;2022-09-02T12:27:26;1.53;;;1.30;;
22455;SDS011;11395;53.204;6.502;2022-09-02T12:29:52;1.33;;;1.23;;
22455;SDS011;11395;53.204;6.502;2022-09-02T12:33:00;1.30;;;1.20;;
22455;SDS011;11395;53.204;6.502;2022-09-02T12:38:20;1.47;;;1.20;;
22455;SDS011;11395;53.204;6.502;2022-09-02T12:48:39;1.33;;;1.23;;
22455;SDS011;11395;53.204;6.502;2022-09-02T12:51:09;1.93;;;1.00;;
22455;SDS011;11395;53.204;6.502;2022-09-02T12:56:03;1.00;;;1.00;;
22455;SDS011;11395;53.204;6.502;2022-09-02T12:58:44;1.40;;;1.40;;
22455;SDS011;11395;53.204;6.502;2022-09-02T13:04:16;1.33;;;1.23;;
22455;SDS011;11395;53.204;6.502;2022-09-02T13:20:41;1.60;;;1.50;;
22455;SDS011;11395;53.204;6.502;2022-09-02T13:29:09;1.60;;;1.43;;
22455;SDS011;11395;53.204;6.502;2022-09-02T13:31:59;1.00;;;1.00;;
22455;SDS011;11395;53.204;6.502;2022-09-02T13:34:39;1.40;;;1.30;;
22455;SDS011;11395;53.204;6.502;2022-09-02T13:39:58;2.07;;;1.87;;
22455;SDS011;11395;53.204;6.502;2022-09-02T13:42:28;2.20;;;1.40;;
22455;SDS011;11395;53.204;6.502;2022-09-02T13:45:12;1.53;;;1.43;;
22455;SDS011;11395;53.204;6.502;2022-09-02T13:47:44;1.57;;;1.27;;
22455;SDS011;11395;53.204;6.502;2022-09-02T13:50:17;1.20;;;1.20;;
22455;SDS011;11395;53.204;6.502;2022-09-02T13:52:47;1.63;;;1.10;;
22455;SDS011;11395;53.204;6.502;2022-09-02T13:55:16;1.40;;;1.30;;
22455;SDS011;11395;53.204;6.502;2022-09-02T13:57:46;1.40;;;1.30;;
22455;SDS011;11395;53.204;6.502;2022-09-02T14:00:28;2.20;;;1.50;;
22455;SDS011;11395;53.204;6.502;2022-09-02T14:03:07;1.43;;;1.33;;
22455;SDS011;11395;53.204;6.502;2022-09-02T14:05:39;1.30;;;1.20;;
22455;SDS011;11395;53.204;6.502;2022-09-02T14:08:12;1.20;;;1.10;;
22455;SDS011;11395;53.204;6.502;2022-09-02T14:10:40;1.43;;;1.33;;
22455;SDS011;11395;53.204;6.502;2022-09-02T14:13:08;3.17;;;1.87;;
22455;SDS011;11395;53.204;6.502;2022-09-02T14:15:35;2.70;;;1.10;;
22455;SDS011;11395;53.204;6.502;2022-09-02T14:18:09;2.07;;;1.77;;
22455;SDS011;11395;53.204;6.502;2022-09-02T14:20:51;2.37;;;1.60;;
22455;SDS011;11395;53.204;6.502;2022-09-02T14:23:37;1.33;;;1.23;;
22455;SDS011;11395;53.204;6.502;2022-09-02T14:26:12;1.40;;;1.30;;
22455;SDS011;11395;53.204;6.502;2022-09-02T14:28:49;1.87;;;1.37;;
22455;SDS011;11395;53.204;6.502;2022-09-02T14:31:24;2.40;;;1.40;;
22455;SDS011;11395;53.204;6.502;2022-09-02T14:33:55;1.33;;;1.23;;
22455;SDS011;11395;53.204;6.502;2022-09-02T14:38:52;1.70;;;1.30;;
22455;SDS011;11395;53.204;6.502;2022-09-02T14:41:24;1.50;;;1.40;;
22455;SDS011;11395;53.204;6.502;2022-09-02T14:43:52;1.50;;;1.40;;
22455;SDS011;11395;53.204;6.502;2022-09-02T14:49:05;1.63;;;1.50;;
22455;SDS011;11395;53.204;6.502;2022-09-02T14:51:36;1.77;;;1.33;;
22455;SDS011;11395;53.204;6.502;2022-09-02T14:54:10;1.23;;;1.13;;
22455;SDS011;11395;53.204;6.502;2022-09-02T14:56:52;3.00;;;1.27;;
22455;SDS011;11395;53.204;6.502;2022-09-02T14:59:24;1.37;;;1.30;;
22455;SDS011;11395;53.204;6.502;2022-09-02T15:05:06;1.83;;;1.40;;
22455;SDS011;11395;53.204;6.502;2022-09-02T15:11:07;2.90;;;1.30;;
22455;SDS011;11395;53.204;6.502;2022-09-02T15:14:09;2.07;;;1.20;;
22455;SDS011;11395;53.204;6.502;2022-09-02T15:16:41;1.50;;;1.40;;
22455;SDS011;11395;53.204;6.502;2022-09-02T15:20:03;1.10;;;1.00;;
22455;SDS011;11395;53.204;6.502;2022-09-02T15:22:31;1.97;;;1.40;;
22455;SDS011;11395;53.204;6.502;2022-09-02T15:28:43;2.60;;;1.50;;
22455;SDS011;11395;53.204;6.502;2022-09-02T15:31:16;1.63;;;1.20;;
22455;SDS011;11395;53.204;6.502;2022-09-02T15:33:51;1.27;;;1.17;;
22455;SDS011;11395;53.204;6.502;2022-09-02T15:36:21;2.00;;;1.07;;
22455;SDS011;11395;53.204;6.502;2022-09-02T15:38:49;1.27;;;1.17;;
22455;SDS011;11395;53.204;6.502;2022-09-02T15:41:17;1.77;;;1.47;;
22455;SDS011;11395;53.204;6.502;2022-09-02T15:43:45;1.43;;;1.33;;
22455;SDS011;11395;53.204;6.502;2022-09-02T15:48:49;1.40;;;1.30;;
22455;SDS011;11395;53.204;6.502;2022-09-02T15:51:17;1.40;;;1.30;;
22455;SDS011;11395;53.204;6.502;2022-09-02T15:53:45;1.63;;;1.40;;
22455;SDS011;11395;53.204;6.502;2022-09-02T15:56:21;3.30;;;1.37;;
22455;SDS011;11395;53.204;6.502;2022-09-02T15:58:53;3.30;;;1.20;;
22455;SDS011;11395;53.204;6.502;2022-09-02T16:01:23;2.07;;;1.57;;
22455;SDS011;11395;53.204;6.502;2022-09-02T16:03:50;1.70;;;1.60;;
22455;SDS011;11395;53.204;6.502;2022-09-02T16:06:17;2.40;;;1.70;;
22455;SDS011;11395;53.204;6.502;2022-09-02T16:08:44;2.17;;;1.90;;
22455;SDS011;11395;53.204;6.502;2022-09-02T16:11:10;2.40;;;1.60;;
22455;SDS011;11395;53.204;6.502;2022-09-02T16:13:37;3.07;;;2.13;;
22455;SDS011;11395;53.204;6.502;2022-09-02T16:16:04;2.17;;;1.93;;
22455;SDS011;11395;53.204;6.502;2022-09-02T16:18:33;2.97;;;1.57;;
22455;SDS011;11395;53.204;6.502;2022-09-02T16:21:00;2.87;;;2.17;;
22455;SDS011;11395;53.204;6.502;2022-09-02T16:23:27;3.13;;;2.20;;
22455;SDS011;11395;53.204;6.502;2022-09-02T16:26:06;4.63;;;2.30;;
22455;SDS011;11395;53.204;6.502;2022-09-02T16:28:36;3.10;;;2.03;;
22455;SDS011;11395;53.204;6.502;2022-09-02T16:31:04;4.37;;;2.27;;
22455;SDS011;11395;53.204;6.502;2022-09-02T16:33:31;2.30;;;1.93;;
22455;SDS011;11395;53.204;6.502;2022-09-02T16:35:57;2.77;;;2.23;;
22455;SDS011;11395;53.204;6.502;2022-09-02T16:38:23;2.30;;;2.10;;
22455;SDS011;11395;53.204;6.502;2022-09-02T16:40:50;2.40;;;1.90;;
22455;SDS011;11395;53.204;6.502;2022-09-02T16:43:18;2.57;;;2.00;;
22455;SDS011;11395;53.204;6.502;2022-09-02T16:45:46;2.10;;;2.00;;
22455;SDS011;11395;53.204;6.502;2022-09-02T16:48:13;2.23;;;2.03;;
22455;SDS011;11395;53.204;6.502;2022-09-02T16:50:39;1.93;;;1.80;;
22455;SDS011;11395;53.204;6.502;2022-09-02T16:53:05;3.00;;;2.27;;
22455;SDS011;11395;53.204;6.502;2022-09-02T16:55:31;2.17;;;1.97;;
22455;SDS011;11395;53.204;6.502;2022-09-02T16:57:58;1.73;;;1.63;;
22455;SDS011;11395;53.204;6.502;2022-09-02T17:00:27;2.23;;;1.70;;
22455;SDS011;11395;53.204;6.502;2022-09-02T17:02:53;3.00;;;1.57;;
22455;SDS011;11395;53.204;6.502;2022-09-02T17:05:19;3.83;;;1.90;;
22455;SDS011;11395;53.204;6.502;2022-09-02T17:07:46;2.17;;;1.90;;
22455;SDS011;11395;53.204;6.502;2022-09-02T17:10:12;2.33;;;1.80;;
22455;SDS011;11395;53.204;6.502;2022-09-02T17:12:38;2.10;;;1.90;;
22455;SDS011;11395;53.204;6.502;2022-09-02T17:15:04;2.17;;;1.60;;
22455;SDS011;11395;53.204;6.502;2022-09-02T17:17:31;1.70;;;1.60;;
22455;SDS011;11395;53.204;6.502;2022-09-02T17:19:57;1.50;;;1.40;;
22455;SDS011;11395;53.204;6.502;2022-09-02T17:22:23;1.60;;;1.50;;
22455;SDS011;11395;53.204;6.502;2022-09-02T17:24:49;2.43;;;1.70;;
22455;SDS011;11395;53.204;6.502;2022-09-02T17:27:16;2.07;;;1.67;;
22455;SDS011;11395;53.204;6.502;2022-09-02T17:29:42;2.03;;;1.70;;
22455;SDS011;11395;53.204;6.502;2022-09-02T17:32:08;1.70;;;1.60;;
22455;SDS011;11395;53.204;6.502;2022-09-02T17:34:35;1.67;;;1.57;;
22455;SDS011;11395;53.204;6.502;2022-09-02T17:37:01;2.20;;;1.73;;
22455;SDS011;11395;53.204;6.502;2022-09-02T17:39:27;1.97;;;1.80;;
22455;SDS011;11395;53.204;6.502;2022-09-02T17:41:54;1.90;;;1.70;;
22455;SDS011;11395;53.204;6.502;2022-09-02T17:44:28;2.10;;;1.77;;
22455;SDS011;11395;53.204;6.502;2022-09-02T17:46:59;1.90;;;1.80;;
22455;SDS011;11395;53.204;6.502;2022-09-02T17:49:27;2.67;;;1.73;;
22455;SDS011;11395;53.204;6.502;2022-09-02T17:51:53;1.70;;;1.60;;
22455;SDS011;11395;53.204;6.502;2022-09-02T17:54:19;1.80;;;1.70;;
22455;SDS011;11395;53.204;6.502;2022-09-02T18:07:49;1.83;;;1.60;;
22455;SDS011;11395;53.204;6.502;2022-09-02T18:10:18;2.37;;;1.47;;
22455;SDS011;11395;53.204;6.502;2022-09-02T18:12:44;2.30;;;1.77;;
22455;SDS011;11395;53.204;6.502;2022-09-02T18:15:12;1.90;;;1.80;;
22455;SDS011;11395;53.204;6.502;2022-09-02T18:17:46;1.43;;;1.33;;
22455;SDS011;11395;53.204;6.502;2022-09-02T18:31:53;1.60;;;1.50;;
22455;SDS011;11395;53.204;6.502;2022-09-02T18:42:51;1.90;;;1.80;;
22455;SDS011;11395;53.204;6.502;2022-09-02T18:45:32;3.63;;;1.30;;